Time;durP1;ratioP1;P1;durP2;ratioP2;P2;SDS_P1;SDS_P2;PMS_P1;PMS_P2;Temp;Humidity;BMP_temperature;BMP_pressure;BME280_temperature;BME280_humidity;BME280_pressure;Samples;Min_cycle;Max_cycle;Signal;HPM_P1;HPM_P2
2022/07/05 00:00:46;;;;;;;10.88;6.82;;;13.40;99.90;;;;;;4973587;28;20081;-92
2022/07/05 00:03:12;;;;;;;8.82;6.40;;;13.30;99.90;;;;;;4976267;28;20054;-91
2022/07/05 00:05:38;;;;;;;8.75;6.93;;;13.30;99.90;;;;;;4975260;28;20503;-89
2022/07/05 00:08:05;;;;;;;11.07;7.07;;;13.30;99.90;;;;;;4980848;28;20042;-91
2022/07/05 00:10:32;;;;;;;9.65;6.63;;;13.20;99.90;;;;;;4976695;28;20057;-92
2022/07/05 00:12:58;;;;;;;9.38;7.03;;;13.20;99.90;;;;;;4980234;28;20073;-91
2022/07/05 00:15:23;;;;;;;10.27;6.50;;;13.20;99.90;;;;;;4970400;28;20070;-91
2022/07/05 00:17:49;;;;;;;8.30;6.82;;;13.10;99.90;;;;;;4967901;28;20118;-91
2022/07/05 00:20:15;;;;;;;10.60;7.15;;;13.10;99.90;;;;;;4977488;28;20037;-92
2022/07/05 00:22:40;;;;;;;9.73;6.72;;;13.10;99.90;;;;;;4982161;28;20055;-91
2022/07/05 00:25:06;;;;;;;10.13;6.47;;;13.00;99.90;;;;;;4976538;28;20147;-91
2022/07/05 00:27:32;;;;;;;10.07;7.25;;;13.00;99.90;;;;;;4980435;28;20057;-91
2022/07/05 00:29:58;;;;;;;9.63;7.38;;;13.00;99.90;;;;;;4960455;28;20046;-91
2022/07/05 00:32:23;;;;;;;8.75;6.82;;;13.00;99.90;;;;;;4977350;28;20063;-91
2022/07/05 00:34:50;;;;;;;8.25;6.45;;;12.90;99.90;;;;;;4962283;28;20415;-92
2022/07/05 00:37:15;;;;;;;10.35;7.35;;;12.90;99.90;;;;;;4977075;28;20077;-91
2022/07/05 00:39:41;;;;;;;9.85;7.43;;;13.00;99.90;;;;;;4978624;28;20065;-91
2022/07/05 00:42:07;;;;;;;10.27;7.63;;;13.00;99.90;;;;;;4976570;28;20084;-92
2022/07/05 00:44:39;;;;;;;9.70;7.65;;;13.00;99.90;;;;;;4975444;28;20126;-91
2022/07/05 00:47:05;;;;;;;9.45;6.93;;;12.90;99.90;;;;;;4975451;28;20059;-91
2022/07/05 00:49:32;;;;;;;9.57;7.30;;;12.90;99.90;;;;;;4975451;28;20039;-91
2022/07/05 00:51:59;;;;;;;10.57;7.45;;;12.90;99.90;;;;;;4972634;28;20043;-92
2022/07/05 00:54:26;;;;;;;9.73;7.60;;;12.90;99.90;;;;;;4960966;28;20202;-91
2022/07/05 00:56:52;;;;;;;10.50;8.13;;;12.80;99.90;;;;;;4975939;28;20058;-91
2022/07/05 00:59:18;;;;;;;9.77;7.13;;;12.80;99.90;;;;;;4955326;28;20046;-91
2022/07/05 01:01:44;;;;;;;9.65;6.70;;;12.80;99.90;;;;;;4980410;28;20472;-91
2022/07/05 01:04:11;;;;;;;9.40;7.18;;;12.80;99.90;;;;;;4981333;28;20054;-91
2022/07/05 01:06:38;;;;;;;9.13;6.97;;;12.80;99.90;;;;;;4960504;28;20170;-91
2022/07/05 01:09:04;;;;;;;10.93;7.30;;;12.80;99.90;;;;;;4973982;28;20058;-90
2022/07/05 01:11:30;;;;;;;9.55;7.38;;;12.70;99.90;;;;;;4985661;28;20478;-91
2022/07/05 01:13:58;;;;;;;10.82;6.53;;;12.70;99.90;;;;;;4965754;28;20050;-90
2022/07/05 01:16:24;;;;;;;9.80;6.90;;;12.70;99.90;;;;;;4962853;28;20065;-91
2022/07/05 01:18:50;;;;;;;9.15;7.20;;;12.70;99.90;;;;;;4979943;28;20042;-91
2022/07/05 01:21:19;;;;;;;8.48;6.43;;;12.70;99.90;;;;;;4976574;28;20039;-91
2022/07/05 01:23:45;;;;;;;8.95;6.72;;;12.70;99.90;;;;;;4974847;28;20046;-91
2022/07/05 01:26:11;;;;;;;10.35;6.95;;;12.60;99.90;;;;;;4982416;28;20506;-90
2022/07/05 01:28:37;;;;;;;10.02;7.25;;;12.60;99.90;;;;;;4975234;28;20085;-90
2022/07/05 01:31:02;;;;;;;8.95;6.80;;;12.50;99.90;;;;;;4970530;28;20181;-91
2022/07/05 01:33:30;;;;;;;9.55;6.75;;;12.60;99.90;;;;;;4960878;28;20556;-91
2022/07/05 01:35:57;;;;;;;9.73;7.40;;;12.50;99.90;;;;;;5000717;28;20057;-91
2022/07/05 01:38:24;;;;;;;9.18;6.93;;;12.50;99.90;;;;;;4983972;28;20447;-91
2022/07/05 01:40:51;;;;;;;10.00;7.15;;;12.50;99.90;;;;;;4983300;28;20038;-90
2022/07/05 01:43:19;;;;;;;9.13;6.43;;;12.50;99.90;;;;;;4997750;28;20368;-90
2022/07/05 01:45:47;;;;;;;10.48;6.70;;;12.50;99.90;;;;;;4994740;28;20423;-90
2022/07/05 01:48:15;;;;;;;10.38;7.55;;;12.50;99.90;;;;;;5005018;28;20077;-90
2022/07/05 01:51:01;;;;;;;10.75;7.85;;;12.50;99.90;;;;;;4992568;28;20081;-90
2022/07/05 01:53:31;;;;;;;9.70;7.38;;;12.50;99.90;;;;;;4996127;28;20053;-91
2022/07/05 01:56:01;;;;;;;9.38;7.10;;;12.40;99.90;;;;;;4985575;28;20046;-90
2022/07/05 01:58:28;;;;;;;11.07;7.40;;;12.40;99.90;;;;;;4980861;28;20046;-90
2022/07/05 02:00:55;;;;;;;9.95;7.60;;;12.50;99.90;;;;;;4991018;28;20411;-90
2022/07/05 02:03:21;;;;;;;9.57;7.07;;;12.50;99.90;;;;;;4978052;28;20049;-91
2022/07/05 02:05:47;;;;;;;10.13;7.32;;;12.50;99.90;;;;;;5000665;28;20065;-90
2022/07/05 02:08:15;;;;;;;9.93;7.20;;;12.50;99.90;;;;;;4982240;28;20121;-91
2022/07/05 02:10:41;;;;;;;9.15;7.25;;;12.40;99.90;;;;;;4982860;28;20121;-90
2022/07/05 02:13:07;;;;;;;9.95;7.60;;;12.50;99.90;;;;;;4994995;28;20052;-90
2022/07/05 02:15:34;;;;;;;10.05;6.82;;;12.40;99.90;;;;;;5000314;28;20049;-90
2022/07/05 02:18:02;;;;;;;10.95;8.18;;;12.30;99.90;;;;;;4978822;28;20046;-90
2022/07/05 02:20:29;;;;;;;9.77;7.80;;;12.30;99.90;;;;;;4959203;28;20355;-90
2022/07/05 02:22:55;;;;;;;10.30;7.95;;;12.20;99.90;;;;;;4984785;28;20046;-90
2022/07/05 02:25:20;;;;;;;9.43;7.78;;;12.20;99.90;;;;;;5000193;28;20069;-90
2022/07/05 02:27:46;;;;;;;10.70;8.73;;;12.20;99.90;;;;;;4983492;28;20037;-91
2022/07/05 02:30:12;;;;;;;11.18;8.18;;;12.10;99.90;;;;;;4999902;28;20495;-90
2022/07/05 02:32:38;;;;;;;9.85;7.70;;;12.10;99.90;;;;;;4973765;28;20055;-89
2022/07/05 02:35:05;;;;;;;11.70;8.38;;;12.10;99.90;;;;;;5003567;28;20863;-91
2022/07/05 02:37:30;;;;;;;11.23;9.52;;;12.10;99.90;;;;;;4984411;28;20125;-91
2022/07/05 02:39:56;;;;;;;11.90;9.38;;;12.10;99.90;;;;;;4992611;28;20447;-91
2022/07/05 02:42:22;;;;;;;13.25;9.98;;;12.10;99.90;;;;;;4987129;28;20058;-90
2022/07/05 02:44:48;;;;;;;12.68;9.60;;;12.20;99.90;;;;;;4979567;28;20397;-90
2022/07/05 02:47:13;;;;;;;11.68;9.68;;;12.20;99.90;;;;;;5004076;28;20404;-90
2022/07/05 02:49:39;;;;;;;11.38;10.10;;;12.10;99.90;;;;;;5003290;28;20042;-90
2022/07/05 02:52:05;;;;;;;12.40;10.52;;;12.10;99.90;;;;;;4996055;28;20054;-90
2022/07/05 02:54:30;;;;;;;12.57;9.15;;;12.10;99.90;;;;;;4981724;28;20044;-90
2022/07/05 02:56:56;;;;;;;10.73;9.60;;;12.10;99.90;;;;;;4989061;28;20038;-90
2022/07/05 02:59:21;;;;;;;12.55;9.15;;;12.20;99.90;;;;;;4984601;28;20073;-90
2022/07/05 03:01:47;;;;;;;11.52;9.38;;;12.20;99.90;;;;;;4998787;28;20050;-89
2022/07/05 03:04:12;;;;;;;11.77;9.32;;;12.20;99.90;;;;;;4984326;28;20033;-90
2022/07/05 03:06:38;;;;;;;11.52;9.57;;;12.10;99.90;;;;;;4994831;28;20081;-92
2022/07/05 03:09:04;;;;;;;11.48;9.05;;;12.10;99.90;;;;;;4968692;28;20460;-90
2022/07/05 03:11:30;;;;;;;10.77;9.15;;;12.10;99.90;;;;;;4983862;28;20100;-89
2022/07/05 03:13:56;;;;;;;12.02;9.90;;;12.20;99.90;;;;;;4994310;28;20033;-90
2022/07/05 03:16:23;;;;;;;12.68;9.98;;;12.20;99.90;;;;;;4982104;28;20515;-90
2022/07/05 03:18:49;;;;;;;12.43;10.15;;;12.20;99.90;;;;;;4997341;28;20042;-90
2022/07/05 03:21:15;;;;;;;11.82;10.52;;;12.20;99.90;;;;;;5000371;28;20092;-90
2022/07/05 03:23:40;;;;;;;12.88;11.02;;;12.20;99.90;;;;;;4979510;28;20090;-90
2022/07/05 03:26:06;;;;;;;14.00;10.98;;;12.20;99.90;;;;;;4998748;28;20042;-90
2022/07/05 03:28:32;;;;;;;13.75;11.30;;;12.20;99.90;;;;;;4997963;28;20141;-89
2022/07/05 03:30:58;;;;;;;13.38;11.32;;;12.20;99.90;;;;;;4972642;28;20140;-90
2022/07/05 03:33:24;;;;;;;12.77;10.75;;;12.30;99.90;;;;;;4971663;28;20233;-90
2022/07/05 03:35:50;;;;;;;13.43;11.43;;;12.30;99.90;;;;;;4999885;28;20462;-90
2022/07/05 03:38:16;;;;;;;12.68;11.25;;;12.30;99.90;;;;;;4981083;28;20129;-91
2022/07/05 03:40:42;;;;;;;12.15;10.77;;;12.30;99.90;;;;;;4984899;28;20046;-92
2022/07/05 03:43:07;;;;;;;12.57;11.05;;;12.30;99.90;;;;;;4998626;28;20125;-91
2022/07/05 03:45:33;;;;;;;12.40;10.93;;;12.30;99.90;;;;;;5002999;28;20578;-90
2022/07/05 03:48:00;;;;;;;13.00;11.63;;;12.30;99.90;;;;;;4980353;28;20038;-91
2022/07/05 03:50:26;;;;;;;12.88;11.35;;;12.30;99.90;;;;;;5002773;28;20042;-91
2022/07/05 03:52:52;;;;;;;12.30;10.73;;;12.40;99.90;;;;;;4958835;28;20062;-90
2022/07/05 03:55:17;;;;;;;13.10;11.70;;;12.40;99.90;;;;;;4999178;28;20046;-89
2022/07/05 03:57:43;;;;;;;13.90;11.50;;;12.40;99.90;;;;;;4986970;28;20079;-90
2022/07/05 04:00:09;;;;;;;12.55;11.00;;;12.40;99.90;;;;;;4998523;28;20410;-90
2022/07/05 04:02:34;;;;;;;13.75;11.32;;;12.40;99.90;;;;;;4983300;28;20504;-90
2022/07/05 04:05:00;;;;;;;13.85;11.55;;;12.40;99.90;;;;;;5001089;28;20052;-90
2022/07/05 04:07:26;;;;;;;12.55;11.15;;;12.50;99.90;;;;;;4999101;28;20069;-90
2022/07/05 04:09:51;;;;;;;12.60;11.05;;;12.50;99.90;;;;;;4982474;28;20053;-90
2022/07/05 04:12:17;;;;;;;14.90;10.88;;;12.50;99.90;;;;;;4981531;28;20117;-91
2022/07/05 04:14:42;;;;;;;14.65;11.07;;;12.50;99.90;;;;;;4980033;28;20039;-89
2022/07/05 04:17:08;;;;;;;13.82;11.65;;;12.60;99.90;;;;;;4999639;28;20498;-90
2022/07/05 04:19:34;;;;;;;16.83;11.45;;;12.60;99.90;;;;;;5004435;28;20104;-91
2022/07/05 04:21:59;;;;;;;12.93;11.13;;;12.60;99.90;;;;;;4974038;28;20084;-91
2022/07/05 04:24:25;;;;;;;13.23;11.82;;;12.60;99.90;;;;;;4969686;28;20046;-91
2022/07/05 04:26:51;;;;;;;13.95;11.45;;;12.60;99.90;;;;;;5001518;28;20057;-91
2022/07/05 04:29:16;;;;;;;12.43;10.68;;;12.70;99.90;;;;;;4998949;28;20042;-91
2022/07/05 04:31:42;;;;;;;12.75;11.40;;;12.70;99.90;;;;;;5001141;28;20111;-90
2022/07/05 04:34:08;;;;;;;13.27;10.77;;;12.70;99.90;;;;;;4997431;28;20138;-91
2022/07/05 04:36:34;;;;;;;12.85;11.55;;;12.80;99.90;;;;;;4992464;28;20044;-90
2022/07/05 04:38:59;;;;;;;14.18;11.73;;;12.80;99.90;;;;;;4961544;28;20084;-90
2022/07/05 04:41:25;;;;;;;12.98;10.88;;;12.80;99.90;;;;;;4992808;28;20041;-90
2022/07/05 04:43:51;;;;;;;14.73;11.98;;;12.90;99.90;;;;;;4974931;28;20542;-90
2022/07/05 04:46:16;;;;;;;14.63;11.80;;;13.00;99.90;;;;;;5001190;28;20038;-91
2022/07/05 04:48:42;;;;;;;13.80;12.40;;;13.00;99.90;;;;;;4979596;28;20499;-90
2022/07/05 04:51:08;;;;;;;13.40;12.00;;;13.10;99.90;;;;;;5003012;28;20038;-91
2022/07/05 04:53:33;;;;;;;13.80;11.90;;;13.20;99.90;;;;;;4985025;28;20038;-91
2022/07/05 04:55:59;;;;;;;14.07;12.57;;;13.20;99.90;;;;;;4983372;28;20115;-88
2022/07/05 04:58:24;;;;;;;14.60;12.80;;;13.30;99.90;;;;;;4992332;28;20081;-92
2022/07/05 05:00:50;;;;;;;14.50;12.43;;;13.40;99.90;;;;;;4984891;28;20104;-90
2022/07/05 05:03:15;;;;;;;14.18;12.68;;;13.50;99.90;;;;;;4982927;28;20046;-90
2022/07/05 05:05:41;;;;;;;14.10;12.70;;;13.50;99.90;;;;;;5002396;28;20113;-90
2022/07/05 05:08:06;;;;;;;15.15;13.55;;;13.60;99.90;;;;;;4999663;28;20034;-91
2022/07/05 05:10:32;;;;;;;14.85;13.25;;;13.70;99.90;;;;;;5003447;28;20042;-89
2022/07/05 05:12:58;;;;;;;15.02;13.25;;;13.80;99.90;;;;;;4974726;28;20501;-89
2022/07/05 05:15:23;;;;;;;17.15;13.07;;;13.90;99.90;;;;;;4990716;28;20490;-89
2022/07/05 05:17:49;;;;;;;15.80;13.82;;;13.90;99.90;;;;;;5006987;28;20129;-89
2022/07/05 05:20:17;;;;;;;14.85;13.35;;;14.00;99.90;;;;;;4972838;28;20482;-89
2022/07/05 05:22:42;;;;;;;15.05;13.55;;;14.10;99.90;;;;;;4989468;28;20041;-89
2022/07/05 05:25:09;;;;;;;14.98;13.45;;;14.10;99.90;;;;;;5008519;28;20503;-89
2022/07/05 05:27:39;;;;;;;14.38;12.90;;;14.20;99.90;;;;;;5009692;28;20096;-90
2022/07/05 05:30:05;;;;;;;14.85;13.35;;;14.30;99.90;;;;;;4990803;28;20128;-90
2022/07/05 05:32:31;;;;;;;14.60;13.10;;;14.40;99.90;;;;;;4988626;28;20478;-89
2022/07/05 05:34:57;;;;;;;14.23;12.73;;;14.40;99.90;;;;;;4989326;28;20049;-89
2022/07/05 05:37:22;;;;;;;14.25;12.35;;;14.50;99.90;;;;;;4973917;28;20120;-89
2022/07/05 05:39:48;;;;;;;14.55;12.55;;;14.60;99.90;;;;;;5008485;28;20392;-89
2022/07/05 05:42:13;;;;;;;14.43;12.68;;;14.70;99.90;;;;;;4975190;28;20077;-90
2022/07/05 05:44:39;;;;;;;13.05;11.73;;;14.90;99.90;;;;;;4977849;28;20042;-91
2022/07/05 05:47:05;;;;;;;12.32;11.00;;;15.00;99.90;;;;;;4994097;28;20056;-91
2022/07/05 05:49:30;;;;;;;12.35;11.05;;;15.10;99.90;;;;;;5012065;28;20104;-91
2022/07/05 05:51:56;;;;;;;12.20;10.48;;;15.20;99.90;;;;;;4991697;28;20041;-90
2022/07/05 05:54:21;;;;;;;13.23;10.52;;;15.30;99.90;;;;;;4995426;28;20494;-89
2022/07/05 05:56:47;;;;;;;11.43;10.18;;;15.40;99.90;;;;;;4994897;28;20042;-88
2022/07/05 05:59:13;;;;;;;11.40;8.73;;;15.50;99.90;;;;;;4994841;28;20042;-89
2022/07/05 06:01:38;;;;;;;9.88;8.27;;;15.60;99.90;;;;;;4993836;28;20026;-89
2022/07/05 06:04:04;;;;;;;9.75;7.90;;;15.80;99.90;;;;;;4994100;28;20573;-89
2022/07/05 06:06:29;;;;;;;10.73;8.57;;;15.90;99.90;;;;;;5010861;28;20046;-88
2022/07/05 06:08:55;;;;;;;9.27;7.72;;;16.00;99.90;;;;;;4993910;28;20042;-89
2022/07/05 06:11:21;;;;;;;9.63;7.43;;;16.10;99.90;;;;;;4994550;28;20172;-88
2022/07/05 06:13:46;;;;;;;9.10;6.95;;;16.20;99.90;;;;;;4991433;28;20697;-89
2022/07/05 06:16:12;;;;;;;10.10;6.80;;;16.30;99.90;;;;;;4999998;28;20100;-88
2022/07/05 06:18:37;;;;;;;9.30;6.07;;;16.40;99.90;;;;;;5014392;28;20049;-90
2022/07/05 06:21:03;;;;;;;10.27;6.43;;;16.60;99.90;;;;;;4990077;28;20395;-88
2022/07/05 06:23:29;;;;;;;7.63;5.03;;;16.70;99.90;;;;;;4993286;28;20041;-88
2022/07/05 06:25:54;;;;;;;7.10;4.57;;;16.70;99.90;;;;;;4994275;28;20042;-87
2022/07/05 06:28:20;;;;;;;7.43;4.10;;;16.70;99.90;;;;;;5012688;28;20045;-88
2022/07/05 06:30:46;;;;;;;7.00;3.90;;;16.80;99.90;;;;;;4993763;28;20138;-89
2022/07/05 06:33:11;;;;;;;9.43;4.32;;;16.90;99.90;;;;;;5008685;28;20057;-90
2022/07/05 06:35:37;;;;;;;8.45;3.80;;;17.10;99.90;;;;;;4994097;28;20041;-87
2022/07/05 06:38:07;;;;;;;9.02;4.18;;;17.30;99.90;;;;;;4991798;28;20481;-84
2022/07/05 06:40:38;;;;;;;8.07;3.67;;;17.30;99.90;;;;;;4993387;28;20037;-84
2022/07/05 06:43:07;;;;;;;6.22;3.00;;;17.40;99.90;;;;;;4977126;28;20056;-85
2022/07/05 06:45:33;;;;;;;6.68;2.40;;;17.50;99.90;;;;;;5011677;28;20046;-83
2022/07/05 06:48:03;;;;;;;9.35;2.55;;;17.50;99.90;;;;;;4989610;28;20084;-87
2022/07/05 06:50:30;;;;;;;8.10;2.70;;;17.70;99.90;;;;;;4992168;28;20070;-86
2022/07/05 06:52:56;;;;;;;6.00;2.35;;;17.70;99.90;;;;;;4990203;28;20092;-85
2022/07/05 06:55:23;;;;;;;5.75;2.40;;;17.80;99.90;;;;;;4975607;28;20053;-83
2022/07/05 06:57:49;;;;;;;6.25;2.17;;;17.80;99.90;;;;;;4990587;28;20147;-85
2022/07/05 07:00:15;;;;;;;5.65;2.22;;;17.90;99.90;;;;;;5009792;28;20043;-84
2022/07/05 07:02:41;;;;;;;5.35;2.00;;;17.90;99.90;;;;;;5011417;28;20065;-83
2022/07/05 07:05:07;;;;;;;5.60;2.15;;;18.00;99.90;;;;;;5010802;28;20049;-84
2022/07/05 07:10:18;;;;;;;4.15;1.70;;;18.00;99.90;;;;;;4986052;28;20488;-85
2022/07/05 07:12:44;;;;;;;5.13;1.80;;;18.10;99.90;;;;;;5011297;28;20093;-85
2022/07/05 07:15:10;;;;;;;4.95;2.10;;;18.10;99.90;;;;;;4981363;28;20077;-87
2022/07/05 07:17:36;;;;;;;6.35;2.08;;;18.20;99.90;;;;;;5010598;28;20042;-84
2022/07/05 07:20:01;;;;;;;6.05;2.00;;;18.10;99.90;;;;;;4991933;28;20088;-85
2022/07/05 07:22:27;;;;;;;5.22;1.98;;;18.10;99.90;;;;;;4993477;28;20042;-85
2022/07/05 07:24:53;;;;;;;4.93;2.05;;;18.10;99.90;;;;;;5005834;28;20049;-86
2022/07/05 07:27:19;;;;;;;5.30;1.70;;;18.10;99.90;;;;;;4993192;28;20089;-86
2022/07/05 07:29:44;;;;;;;4.70;1.98;;;18.30;99.90;;;;;;5009141;28;20081;-86
2022/07/05 07:32:10;;;;;;;6.75;2.20;;;18.30;99.90;;;;;;4992339;28;20129;-85
2022/07/05 07:34:37;;;;;;;5.45;2.03;;;18.40;99.90;;;;;;4976534;28;20054;-84
2022/07/05 07:37:03;;;;;;;7.47;2.30;;;18.40;99.90;;;;;;4975921;28;20476;-85
2022/07/05 07:39:31;;;;;;;6.65;2.45;;;18.40;99.90;;;;;;4976881;28;20044;-86
2022/07/05 07:41:57;;;;;;;6.03;2.17;;;18.50;99.90;;;;;;4975704;28;20037;-88
2022/07/05 07:44:23;;;;;;;5.47;2.13;;;18.60;99.90;;;;;;5009374;28;20061;-89
2022/07/05 07:46:48;;;;;;;4.90;1.77;;;18.60;99.90;;;;;;5009674;28;20046;-89
2022/07/05 07:49:14;;;;;;;6.38;2.00;;;18.60;99.90;;;;;;4992789;28;20042;-92
2022/07/05 07:51:40;;;;;;;5.20;1.50;;;18.60;99.90;;;;;;4991181;28;20129;-89
2022/07/05 07:54:06;;;;;;;4.75;1.45;;;18.70;99.90;;;;;;4964920;28;20128;-92
2022/07/05 07:56:31;;;;;;;5.03;1.60;;;18.60;99.90;;;;;;4973355;28;20302;-91
2022/07/05 07:58:57;;;;;;;6.60;1.70;;;18.60;99.90;;;;;;4980527;28;20053;-89
2022/07/05 08:01:23;;;;;;;5.15;1.70;;;18.60;99.90;;;;;;4998113;28;20483;-90
2022/07/05 08:03:49;;;;;;;5.93;1.63;;;18.70;99.90;;;;;;5002012;28;20042;-89
2022/07/05 08:06:15;;;;;;;6.35;1.98;;;18.80;99.90;;;;;;4981414;28;20509;-90
2022/07/05 08:08:43;;;;;;;4.40;1.50;;;18.80;99.90;;;;;;4984767;28;20081;-87
2022/07/05 08:11:09;;;;;;;4.93;1.40;;;18.90;99.90;;;;;;4980568;28;20402;-86
2022/07/05 08:13:36;;;;;;;6.18;1.48;;;18.90;99.90;;;;;;4984659;28;20445;-84
2022/07/05 08:16:02;;;;;;;4.28;1.40;;;19.00;99.90;;;;;;4996446;28;20527;-84
2022/07/05 08:21:31;;;;;;;3.53;1.10;;;19.00;99.90;;;;;;4999818;28;20108;-86
2022/07/05 08:24:07;;;;;;;5.35;1.50;;;19.00;99.90;;;;;;4991397;28;20046;-85
2022/07/05 08:26:34;;;;;;;3.70;1.48;;;18.90;99.90;;;;;;4980434;28;20569;-84
2022/07/05 08:29:03;;;;;;;4.10;1.48;;;18.80;99.90;;;;;;4974212;28;20058;-84
2022/07/05 08:31:31;;;;;;;5.95;1.60;;;18.70;99.90;;;;;;4994275;28;20057;-84
2022/07/05 08:33:57;;;;;;;6.15;1.50;;;18.70;99.90;;;;;;4996854;28;20068;-84
2022/07/05 08:36:22;;;;;;;5.57;1.50;;;18.70;99.90;;;;;;4997439;28;20112;-85
2022/07/05 08:38:48;;;;;;;4.07;1.40;;;18.70;99.90;;;;;;4993029;28;20100;-85
2022/07/05 08:41:18;;;;;;;4.47;1.25;;;18.70;99.90;;;;;;4966778;28;20403;-86
2022/07/05 08:43:46;;;;;;;3.60;1.20;;;18.70;99.90;;;;;;4967582;28;20060;-85
2022/07/05 08:46:13;;;;;;;5.05;1.25;;;18.80;99.90;;;;;;4982698;28;20323;-85
2022/07/05 08:48:44;;;;;;;7.10;1.20;;;18.70;99.90;;;;;;4997345;28;20137;-85
2022/07/05 08:51:16;;;;;;;4.68;1.13;;;18.50;99.90;;;;;;4978257;28;20424;-85
2022/07/05 08:53:43;;;;;;;4.32;1.25;;;18.50;99.90;;;;;;4988224;28;20471;-86
2022/07/05 08:56:10;;;;;;;7.03;1.60;;;18.50;99.90;;;;;;4961867;28;20050;-87
2022/07/05 08:58:36;;;;;;;14.95;2.70;;;18.60;99.90;;;;;;4971075;28;20061;-86
2022/07/05 09:01:03;;;;;;;3.03;1.02;;;18.60;99.90;;;;;;4973776;28;20739;-85
2022/07/05 09:03:49;;;;;;;5.25;1.20;;;18.80;99.90;;;;;;4963158;28;20057;-85
2022/07/05 09:06:20;;;;;;;2.72;1.02;;;19.00;99.90;;;;;;4983359;28;20422;-85
2022/07/05 09:08:48;;;;;;;5.22;1.13;;;18.90;99.90;;;;;;4994966;28;20121;-86
2022/07/05 09:11:16;;;;;;;8.05;1.70;;;18.90;99.90;;;;;;4980442;28;20089;-84
2022/07/05 09:13:49;;;;;;;6.72;1.50;;;18.90;99.90;;;;;;4981714;28;20080;-85
2022/07/05 09:16:15;;;;;;;5.35;1.10;;;18.90;99.90;;;;;;4981215;28;20129;-88
2022/07/05 09:18:53;;;;;;;4.30;1.10;;;19.00;99.90;;;;;;4995186;28;20050;-87
2022/07/05 09:21:20;;;;;;;5.65;1.10;;;19.10;99.90;;;;;;4998448;28;20487;-86
2022/07/05 09:23:55;;;;;;;4.60;1.35;;;19.20;99.90;;;;;;5000782;28;20056;-86
2022/07/05 09:26:26;;;;;;;3.72;1.10;;;19.30;99.90;;;;;;4976969;28;20057;-85
2022/07/05 09:28:56;;;;;;;4.75;1.17;;;19.20;99.90;;;;;;5000462;28;20038;-87
2022/07/05 09:31:33;;;;;;;15.13;2.83;;;19.20;99.90;;;;;;4997053;28;20069;-84
2022/07/05 09:34:09;;;;;;;5.18;1.30;;;19.30;99.90;;;;;;5000753;28;20104;-85
2022/07/05 09:37:03;;;;;;;5.90;1.35;;;19.50;99.90;;;;;;4976079;28;20134;-85
2022/07/05 09:39:37;;;;;;;4.00;1.10;;;19.60;99.90;;;;;;4978264;28;20120;-87
2022/07/05 09:42:23;;;;;;;5.72;1.60;;;19.50;99.90;;;;;;4988810;28;20052;-87
2022/07/05 09:44:56;;;;;;;4.18;1.10;;;19.50;99.90;;;;;;4973840;28;20042;-85
2022/07/05 09:47:24;;;;;;;6.95;1.45;;;19.50;99.90;;;;;;4982563;28;20049;-86
2022/07/05 09:50:04;;;;;;;4.10;1.30;;;19.50;99.90;;;;;;4965539;28;20033;-88
2022/07/05 09:52:35;;;;;;;4.53;1.10;;;19.50;99.90;;;;;;4983079;28;20068;-88
2022/07/05 09:55:05;;;;;;;9.18;1.88;;;19.40;99.90;;;;;;4994453;28;20035;-87
2022/07/05 09:57:31;;;;;;;4.57;1.20;;;19.30;99.90;;;;;;4978668;28;20074;-87
2022/07/05 10:00:10;;;;;;;4.45;1.20;;;19.20;99.90;;;;;;4965937;28;20042;-85
2022/07/05 10:02:44;;;;;;;6.93;1.42;;;19.20;99.90;;;;;;4979024;28;20042;-87
2022/07/05 10:05:09;;;;;;;5.25;1.13;;;19.20;99.90;;;;;;4976300;28;20050;-88
2022/07/05 10:07:36;;;;;;;5.28;1.40;;;19.20;99.90;;;;;;4980931;28;20046;-87
2022/07/05 10:10:02;;;;;;;5.53;1.38;;;19.20;99.90;;;;;;4982014;28;20092;-86
2022/07/05 10:12:30;;;;;;;3.17;1.20;;;19.20;99.90;;;;;;4998263;28;20077;-86
2022/07/05 10:14:59;;;;;;;6.43;1.45;;;19.30;99.90;;;;;;5002325;28;20049;-86
2022/07/05 10:17:27;;;;;;;5.70;1.25;;;19.30;99.90;;;;;;5002615;28;20066;-86
2022/07/05 10:19:54;;;;;;;5.38;1.23;;;19.40;99.90;;;;;;5000155;28;20196;-89
2022/07/05 10:22:19;;;;;;;5.05;1.20;;;19.40;99.90;;;;;;4987293;28;20236;-88
2022/07/05 10:24:46;;;;;;;5.78;1.38;;;19.40;99.90;;;;;;4995844;28;20564;-85
2022/07/05 10:27:13;;;;;;;4.60;1.10;;;19.40;99.90;;;;;;5000006;28;20414;-86
2022/07/05 10:29:40;;;;;;;5.20;1.15;;;19.40;99.90;;;;;;5006948;28;20095;-86
2022/07/05 10:32:09;;;;;;;7.70;1.50;;;19.40;99.90;;;;;;4998873;28;20058;-86
2022/07/05 10:34:35;;;;;;;3.50;1.30;;;19.50;99.90;;;;;;5001924;28;20042;-86
2022/07/05 10:37:01;;;;;;;5.40;1.20;;;19.50;99.90;;;;;;4981898;28;20080;-86
2022/07/05 10:39:27;;;;;;;14.05;2.20;;;19.50;99.90;;;;;;4985113;28;20046;-86
2022/07/05 10:41:54;;;;;;;3.33;1.30;;;19.50;99.90;;;;;;4981157;28;20048;-86
2022/07/05 10:44:32;;;;;;;3.75;1.20;;;19.40;99.90;;;;;;4977850;28;20050;-87
2022/07/05 10:47:09;;;;;;;4.57;1.30;;;19.30;99.90;;;;;;4984195;28;20042;-87
2022/07/05 10:49:36;;;;;;;5.32;1.50;;;19.10;99.90;;;;;;4981367;28;20050;-86
2022/07/05 10:52:02;;;;;;;3.53;1.13;;;19.10;99.90;;;;;;5001562;28;20161;-85
2022/07/05 10:54:27;;;;;;;5.75;1.42;;;19.00;99.90;;;;;;5007416;28;20132;-86
2022/07/05 10:57:24;;;;;;;4.40;1.58;;;19.10;99.90;;;;;;4988457;28;20045;-86
2022/07/05 11:00:06;;;;;;;9.35;1.50;;;19.10;99.90;;;;;;4983755;28;20062;-86
2022/07/05 11:02:32;;;;;;;9.05;1.42;;;19.10;99.90;;;;;;4983292;28;20046;-84
2022/07/05 11:04:59;;;;;;;6.55;1.80;;;19.20;99.90;;;;;;4982131;28;20099;-87
2022/07/05 11:07:59;;;;;;;3.90;1.40;;;19.20;99.90;;;;;;5006019;28;20387;-86
2022/07/05 11:10:25;;;;;;;4.13;1.50;;;19.20;99.90;;;;;;4976656;28;20096;-86
2022/07/05 11:12:51;;;;;;;6.10;1.50;;;19.20;99.90;;;;;;4997226;28;20038;-86
2022/07/05 11:15:17;;;;;;;5.38;1.60;;;19.20;99.90;;;;;;4987377;28;20446;-86
2022/07/05 11:17:42;;;;;;;5.20;1.40;;;19.30;99.90;;;;;;5000734;28;20093;-87
2022/07/05 11:20:28;;;;;;;4.13;1.40;;;19.40;99.90;;;;;;4983523;28;20069;-86
2022/07/05 11:23:08;;;;;;;5.05;1.50;;;19.50;99.90;;;;;;4991761;28;20058;-85
2022/07/05 11:25:40;;;;;;;5.60;1.30;;;19.60;99.90;;;;;;4986943;28;20052;-85
2022/07/05 11:28:17;;;;;;;3.70;1.10;;;19.70;99.90;;;;;;4981729;28;21045;-85
2022/07/05 11:30:48;;;;;;;5.20;1.38;;;19.80;99.90;;;;;;4973151;28;20459;-86
2022/07/05 11:33:33;;;;;;;4.40;1.40;;;20.00;99.90;;;;;;4984328;28;20053;-86
2022/07/05 11:35:59;;;;;;;5.63;1.60;;;20.00;99.90;;;;;;4983125;28;20529;-86
2022/07/05 11:38:25;;;;;;;5.38;1.50;;;20.00;99.90;;;;;;4977813;28;20054;-86
2022/07/05 11:40:53;;;;;;;4.95;1.50;;;19.90;99.90;;;;;;4959366;28;20046;-85
2022/07/05 11:43:29;;;;;;;5.22;1.38;;;19.80;99.90;;;;;;5001022;28;20042;-85
2022/07/05 11:45:59;;;;;;;5.18;1.40;;;19.80;99.90;;;;;;4974324;28;20506;-85
2022/07/05 11:48:29;;;;;;;5.35;1.50;;;19.80;99.90;;;;;;5002264;28;20121;-85
2022/07/05 11:50:55;;;;;;;6.07;1.50;;;19.80;99.90;;;;;;4983240;28;20045;-85
2022/07/05 11:53:28;;;;;;;5.70;1.50;;;19.80;99.90;;;;;;4990710;28;20289;-86
2022/07/05 11:55:57;;;;;;;4.07;1.38;;;19.90;99.90;;;;;;4984382;28;20377;-85
2022/07/05 11:58:31;;;;;;;5.55;1.40;;;20.00;99.90;;;;;;4996516;28;20076;-85
2022/07/05 12:00:57;;;;;;;4.55;1.35;;;20.00;99.90;;;;;;4984285;28;20046;-84
2022/07/05 12:03:22;;;;;;;4.68;1.40;;;20.00;99.90;;;;;;5002197;28;20034;-85
2022/07/05 12:05:48;;;;;;;5.75;1.30;;;20.00;99.90;;;;;;4991093;28;20054;-85
2022/07/05 12:08:23;;;;;;;4.93;1.17;;;20.00;99.90;;;;;;5001431;28;20042;-86
2022/07/05 12:13:48;;;;;;;3.67;1.15;;;20.00;99.90;;;;;;5001058;28;20125;-86
2022/07/05 12:16:14;;;;;;;4.00;1.13;;;20.00;99.90;;;;;;5003710;28;20046;-90
2022/07/05 12:18:56;;;;;;;4.40;1.10;;;20.00;99.90;;;;;;4979691;28;20040;-88
2022/07/05 12:21:23;;;;;;;3.53;1.05;;;20.00;99.90;;;;;;5002407;28;20088;-88
2022/07/05 12:23:50;;;;;;;4.18;1.05;;;20.00;99.90;;;;;;4998445;28;20052;-87
2022/07/05 12:26:18;;;;;;;4.32;1.00;;;20.00;99.90;;;;;;5001878;28;20077;-86
2022/07/05 12:28:44;;;;;;;5.38;1.20;;;20.10;99.90;;;;;;4995053;28;20038;-87
2022/07/05 12:31:21;;;;;;;4.40;0.93;;;20.10;99.90;;;;;;4972910;28;20116;-87
2022/07/05 12:33:48;;;;;;;4.78;1.00;;;20.10;99.90;;;;;;4984672;28;20105;-88
2022/07/05 12:36:19;;;;;;;4.70;1.13;;;20.10;99.90;;;;;;4969247;28;20042;-86
2022/07/05 12:38:45;;;;;;;3.67;0.80;;;20.20;99.90;;;;;;4970024;28;20061;-89
2022/07/05 12:41:11;;;;;;;3.78;0.95;;;20.30;99.90;;;;;;4975972;28;20046;-87
2022/07/05 12:43:58;;;;;;;2.38;0.85;;;20.40;99.90;;;;;;4982805;28;20884;-86
2022/07/05 12:46:40;;;;;;;4.72;0.70;;;20.50;99.90;;;;;;4961900;28;20077;-87
2022/07/05 12:49:06;;;;;;;2.83;0.80;;;20.60;99.90;;;;;;4976910;28;20054;-85
2022/07/05 12:51:36;;;;;;;1.70;0.60;;;20.70;99.90;;;;;;4977833;28;20093;-88